Time;durP1;ratioP1;P1;durP2;ratioP2;P2;SDS_P1;SDS_P2;PMS_P1;PMS_P2;Temp;Humidity;BMP_temperature;BMP_pressure;BME280_temperature;BME280_humidity;BME280_pressure;Samples;Min_cycle;Max_cycle;Signal;HPM_P1;HPM_P2
2023/10/15 00:00:18;;;;;;;0.20;0.20;;;10.40;99.90;;;;;;6124752;23;20216;-90
2023/10/15 00:02:45;;;;;;;0.30;0.30;;;10.50;99.90;;;;;;6147984;23;20198;-91
2023/10/15 00:05:12;;;;;;;0.47;0.47;;;10.60;99.90;;;;;;6149136;23;20189;-89
2023/10/15 00:07:39;;;;;;;0.60;0.60;;;10.50;99.90;;;;;;6124189;23;20583;-89
2023/10/15 00:10:10;;;;;;;0.10;0.10;;;10.40;99.90;;;;;;6150465;23;20226;-89
2023/10/15 00:12:37;;;;;;;0.20;0.20;;;10.40;99.90;;;;;;6150510;23;20230;-91
2023/10/15 00:15:07;;;;;;;0.10;0.10;;;10.20;99.90;;;;;;6151124;23;20192;-89
2023/10/15 00:17:33;;;;;;;0.27;0.27;;;10.30;99.90;;;;;;6126796;23;20214;-90
2023/10/15 00:19:59;;;;;;;4.40;0.63;;;10.40;99.90;;;;;;6125930;23;20245;-90
2023/10/15 00:22:25;;;;;;;0.10;0.10;;;10.30;99.90;;;;;;6150523;23;20280;-90
2023/10/15 00:24:50;;;;;;;0.33;0.30;;;10.40;99.90;;;;;;6125646;23;20277;-89
2023/10/15 00:27:17;;;;;;;0.30;0.30;;;10.40;99.90;;;;;;6150538;23;20219;-89
2023/10/15 00:29:43;;;;;;;1.13;0.40;;;10.30;99.90;;;;;;6125882;23;20167;-89
2023/10/15 00:32:09;;;;;;;1.37;0.40;;;10.30;99.90;;;;;;6126377;23;20633;-88
2023/10/15 00:34:35;;;;;;;0.60;0.30;;;10.20;99.90;;;;;;6125858;23;20199;-90
2023/10/15 00:37:01;;;;;;;0.50;0.50;;;10.10;99.90;;;;;;6125691;23;20191;-90
2023/10/15 00:39:27;;;;;;;0.60;0.60;;;10.00;99.90;;;;;;6150454;23;20199;-90
2023/10/15 00:41:53;;;;;;;0.10;0.10;;;10.00;99.90;;;;;;6125343;23;20597;-90
2023/10/15 00:44:20;;;;;;;0.27;0.20;;;10.00;99.90;;;;;;6126125;23;20193;-89
2023/10/15 00:46:54;;;;;;;0.20;0.20;;;9.90;99.90;;;;;;6125644;23;20629;-89
2023/10/15 00:49:25;;;;;;;0.60;0.60;;;9.90;99.90;;;;;;6127181;23;20732;-89
2023/10/15 00:51:51;;;;;;;0.20;0.20;;;9.90;99.90;;;;;;6150006;23;20199;-89
2023/10/15 00:54:18;;;;;;;0.77;0.30;;;9.90;99.90;;;;;;6125315;23;20211;-89
2023/10/15 00:56:46;;;;;;;0.60;0.60;;;10.00;99.90;;;;;;6125498;23;20170;-89
2023/10/15 01:01:51;;;;;;;1.13;0.30;;;10.30;99.90;;;;;;6149810;23;20233;-89
2023/10/15 01:04:17;;;;;;;0.10;0.10;;;10.30;99.90;;;;;;6127580;23;20258;-90
2023/10/15 01:06:49;;;;;;;0.27;0.27;;;10.30;99.90;;;;;;6125074;23;20214;-90
2023/10/15 01:09:27;;;;;;;4.40;0.50;;;10.30;99.90;;;;;;6126837;23;20203;-88
2023/10/15 01:11:56;;;;;;;0.20;0.20;;;10.40;99.90;;;;;;6127814;23;20159;-90
2023/10/15 01:14:33;;;;;;;0.20;0.20;;;10.50;99.90;;;;;;6150681;23;20183;-89
2023/10/15 01:17:02;;;;;;;0.10;0.10;;;10.40;99.90;;;;;;6126787;23;20206;-89
2023/10/15 01:19:32;;;;;;;0.20;0.20;;;10.30;99.90;;;;;;6125151;23;20199;-90
2023/10/15 01:22:17;;;;;;;0.47;0.47;;;10.30;99.90;;;;;;6149442;23;20531;-90
2023/10/15 01:24:43;;;;;;;0.20;0.20;;;10.30;99.90;;;;;;6149741;23;20199;-90
2023/10/15 01:27:11;;;;;;;0.10;0.10;;;10.20;99.90;;;;;;6125087;23;20569;-91
2023/10/15 01:29:44;;;;;;;0.10;0.10;;;10.20;99.90;;;;;;6125774;23;20620;-90
2023/10/15 01:32:18;;;;;;;0.10;0.10;;;10.20;99.90;;;;;;6125520;23;20164;-89
2023/10/15 01:34:45;;;;;;;0.20;0.20;;;10.20;99.90;;;;;;6126791;23;20527;-89
2023/10/15 01:39:49;;;;;;;1.20;0.37;;;10.20;99.90;;;;;;6149395;23;20591;-88
2023/10/15 01:47:44;;;;;;;0.20;0.20;;;9.70;99.90;;;;;;6149243;23;20169;-88
2023/10/15 01:50:15;;;;;;;0.10;0.10;;;9.50;99.90;;;;;;6150386;23;20140;-90
2023/10/15 01:52:44;;;;;;;0.20;0.20;;;9.30;99.90;;;;;;6125768;23;20724;-89
2023/10/15 01:55:09;;;;;;;0.70;0.70;;;9.10;99.90;;;;;;6149516;23;20270;-90
2023/10/15 01:57:39;;;;;;;0.10;0.10;;;9.10;99.90;;;;;;6124611;23;20629;-87
2023/10/15 02:00:13;;;;;;;0.20;0.20;;;9.10;99.90;;;;;;6124453;23;20191;-90
2023/10/15 02:02:41;;;;;;;0.10;0.10;;;9.00;99.90;;;;;;6149751;23;20147;-89
2023/10/15 02:05:26;;;;;;;0.20;0.20;;;8.90;99.90;;;;;;6125647;23;20179;-90
2023/10/15 02:07:52;;;;;;;0.87;0.87;;;8.80;99.90;;;;;;6148871;23;20203;-90
2023/10/15 02:10:19;;;;;;;0.20;0.20;;;8.70;99.90;;;;;;6124698;23;20205;-89
2023/10/15 02:12:51;;;;;;;0.17;0.17;;;8.70;99.90;;;;;;6149016;23;20207;-89
2023/10/15 02:15:22;;;;;;;3.60;0.50;;;8.70;99.90;;;;;;6126346;23;21005;-89
2023/10/15 02:17:52;;;;;;;0.30;0.30;;;8.70;99.90;;;;;;6125924;23;20159;-89
2023/10/15 02:20:40;;;;;;;0.20;0.20;;;8.60;99.90;;;;;;6126168;23;20230;-92
2023/10/15 02:23:05;;;;;;;0.10;0.10;;;8.60;99.90;;;;;;6128517;23;20647;-90
2023/10/15 02:25:35;;;;;;;0.50;0.50;;;8.60;99.90;;;;;;6149473;23;20253;-89
2023/10/15 02:28:01;;;;;;;1.27;0.50;;;8.60;99.90;;;;;;6126632;23;20736;-90
2023/10/15 02:30:32;;;;;;;0.37;0.37;;;8.60;99.90;;;;;;6124371;23;20194;-87
2023/10/15 02:33:01;;;;;;;1.83;0.40;;;8.60;99.90;;;;;;6126415;23;20214;-87
2023/10/15 02:35:38;;;;;;;0.20;0.20;;;8.50;99.90;;;;;;6125174;23;20168;-86
2023/10/15 02:38:10;;;;;;;0.30;0.30;;;8.50;99.90;;;;;;6126216;23;20183;-86
2023/10/15 02:40:55;;;;;;;0.93;0.93;;;8.60;99.90;;;;;;6148719;23;20204;-87
2023/10/15 02:43:24;;;;;;;0.20;0.20;;;8.60;99.90;;;;;;6128334;23;20191;-86
2023/10/15 02:45:50;;;;;;;0.30;0.30;;;8.60;99.90;;;;;;6124257;23;20191;-89
2023/10/15 02:48:21;;;;;;;0.20;0.20;;;8.60;99.90;;;;;;6124075;23;20200;-89
2023/10/15 02:51:08;;;;;;;0.30;0.30;;;8.80;99.90;;;;;;6125927;23;20628;-90
2023/10/15 02:53:36;;;;;;;4.00;0.93;;;8.80;99.90;;;;;;6149807;23;20180;-90
2023/10/15 02:56:10;;;;;;;0.30;0.30;;;8.70;99.90;;;;;;6149038;23;20218;-89
2023/10/15 02:58:40;;;;;;;0.20;0.20;;;8.60;99.90;;;;;;6148939;23;20203;-89
2023/10/15 03:04:09;;;;;;;0.20;0.20;;;8.40;99.90;;;;;;6115982;23;20196;-92
2023/10/15 03:06:35;;;;;;;0.20;0.20;;;8.50;99.90;;;;;;6124610;23;20301;-91
2023/10/15 03:09:01;;;;;;;0.77;0.43;;;8.50;99.90;;;;;;6124106;23;20199;-92
2023/10/15 03:11:33;;;;;;;0.20;0.20;;;8.60;99.90;;;;;;6149215;23;20155;-91
2023/10/15 03:14:00;;;;;;;1.60;0.43;;;8.50;99.90;;;;;;6125043;23;20210;-92
2023/10/15 03:16:30;;;;;;;0.30;0.30;;;8.50;99.90;;;;;;6123904;23;20195;-93
2023/10/15 03:19:06;;;;;;;0.53;0.53;;;8.40;99.90;;;;;;6123537;23;20278;-91
2023/10/15 03:21:37;;;;;;;0.13;0.13;;;8.40;99.90;;;;;;6148390;23;20221;-91
2023/10/15 03:24:04;;;;;;;0.10;0.10;;;8.40;99.90;;;;;;6124650;23;20202;-90
2023/10/15 03:26:34;;;;;;;0.23;0.23;;;8.40;99.90;;;;;;6149597;23;20676;-92
2023/10/15 03:29:09;;;;;;;0.73;0.30;;;8.40;99.90;;;;;;6149720;23;20242;-92
2023/10/15 03:31:37;;;;;;;0.20;0.20;;;8.40;99.90;;;;;;6125638;23;20269;-92
2023/10/15 03:39:25;;;;;;;0.50;0.50;;;8.50;99.90;;;;;;6128496;23;20660;-91
2023/10/15 03:42:09;;;;;;;0.70;0.70;;;9.00;99.90;;;;;;6125507;23;20152;-92
2023/10/15 03:44:44;;;;;;;0.20;0.20;;;9.40;99.90;;;;;;6129930;23;20174;-91
2023/10/15 03:47:12;;;;;;;0.20;0.20;;;9.50;99.90;;;;;;6150367;23;20186;-87
2023/10/15 03:49:38;;;;;;;0.50;0.50;;;9.40;99.90;;;;;;6125750;23;20291;-91
2023/10/15 03:52:14;;;;;;;1.00;1.00;;;9.40;99.90;;;;;;6125893;23;20233;-89
2023/10/15 03:54:47;;;;;;;0.20;0.20;;;9.40;99.90;;;;;;6127662;23;20242;-91
2023/10/15 03:57:26;;;;;;;0.20;0.20;;;9.30;99.90;;;;;;6150760;23;20207;-90
2023/10/15 03:59:52;;;;;;;0.17;0.17;;;9.30;99.90;;;;;;6150211;23;20246;-90
2023/10/15 04:02:23;;;;;;;0.20;0.20;;;9.30;99.90;;;;;;6127469;23;20466;-91
2023/10/15 04:05:00;;;;;;;0.20;0.20;;;9.40;99.90;;;;;;6125892;23;20675;-89
2023/10/15 04:07:27;;;;;;;0.20;0.20;;;9.40;99.90;;;;;;6127658;23;20257;-91
2023/10/15 04:09:53;;;;;;;0.30;0.30;;;9.30;99.90;;;;;;6126091;23;20257;-90
2023/10/15 04:12:19;;;;;;;0.10;0.10;;;9.30;99.90;;;;;;6150380;23;20215;-92
2023/10/15 04:14:46;;;;;;;0.20;0.20;;;9.20;99.90;;;;;;6125871;23;20185;-90
2023/10/15 04:17:12;;;;;;;1.30;1.20;;;9.20;99.90;;;;;;6126669;23;20163;-90
2023/10/15 04:19:37;;;;;;;0.50;0.50;;;9.30;99.90;;;;;;6125655;23;20525;-90
2023/10/15 04:22:15;;;;;;;0.30;0.30;;;9.40;99.90;;;;;;6125663;23;20195;-92
2023/10/15 04:24:50;;;;;;;0.17;0.17;;;9.30;99.90;;;;;;6149998;23;20225;-92
2023/10/15 04:27:17;;;;;;;0.20;0.20;;;9.20;99.90;;;;;;6126528;23;20198;-91
2023/10/15 04:29:51;;;;;;;0.20;0.20;;;9.10;99.90;;;;;;6126291;23;20586;-91
2023/10/15 04:32:45;;;;;;;0.20;0.20;;;9.00;99.90;;;;;;6151440;23;20694;-90
2023/10/15 04:35:15;;;;;;;0.20;0.20;;;9.10;99.90;;;;;;6150786;23;20262;-90
2023/10/15 04:37:44;;;;;;;4.93;0.30;;;9.10;99.90;;;;;;6150263;23;20949;-92
2023/10/15 04:40:11;;;;;;;0.20;0.20;;;9.00;99.90;;;;;;6126098;23;20202;-92
2023/10/15 04:42:49;;;;;;;0.10;0.10;;;8.90;99.90;;;;;;6150227;23;20541;-90
2023/10/15 04:45:29;;;;;;;0.23;0.23;;;8.90;99.90;;;;;;6127557;23;20195;-90
2023/10/15 04:47:59;;;;;;;0.20;0.20;;;8.90;99.90;;;;;;6150197;23;20479;-92
2023/10/15 04:50:35;;;;;;;0.20;0.20;;;8.90;99.90;;;;;;6127363;23;20218;-91
2023/10/15 04:55:47;;;;;;;0.10;0.10;;;9.00;99.90;;;;;;6149424;23;20199;-92
2023/10/15 04:58:13;;;;;;;0.20;0.20;;;9.10;99.90;;;;;;6152232;23;20194;-89
2023/10/15 05:00:47;;;;;;;0.10;0.10;;;9.20;99.90;;;;;;6150340;23;20272;-91
2023/10/15 05:03:14;;;;;;;0.10;0.10;;;9.30;99.90;;;;;;6126247;23;20577;-90
2023/10/15 05:05:43;;;;;;;0.40;0.40;;;9.30;99.90;;;;;;6151229;23;20207;-88
2023/10/15 05:08:13;;;;;;;0.20;0.20;;;9.20;99.90;;;;;;6126751;23;20206;-91
2023/10/15 05:10:50;;;;;;;0.30;0.30;;;9.10;99.90;;;;;;6125957;23;20199;-89
2023/10/15 05:13:17;;;;;;;0.17;0.17;;;9.10;99.90;;;;;;6149536;23;20207;-91
2023/10/15 05:15:50;;;;;;;0.70;0.40;;;9.10;99.90;;;;;;6125019;23;20195;-89
2023/10/15 05:18:18;;;;;;;1.70;0.60;;;9.10;99.90;;;;;;6149546;23;20199;-91
2023/10/15 05:20:47;;;;;;;0.20;0.20;;;9.10;99.90;;;;;;6149760;23;20155;-89
2023/10/15 05:23:13;;;;;;;0.20;0.20;;;9.10;99.90;;;;;;6150473;23;20167;-91
2023/10/15 05:25:39;;;;;;;0.73;0.73;;;9.00;99.90;;;;;;6149535;23;20529;-91
2023/10/15 05:28:06;;;;;;;0.10;0.10;;;9.10;99.90;;;;;;6125186;23;20207;-90
2023/10/15 05:30:32;;;;;;;0.20;0.20;;;9.10;99.90;;;;;;6149969;23;20203;-92
2023/10/15 05:33:00;;;;;;;0.20;0.20;;;9.30;99.90;;;;;;6149666;23;20690;-89
2023/10/15 05:35:30;;;;;;;0.30;0.30;;;9.40;99.90;;;;;;6126628;23;20167;-92
2023/10/15 05:37:56;;;;;;;0.10;0.10;;;9.50;99.90;;;;;;6149160;23;20599;-89
2023/10/15 05:40:22;;;;;;;0.20;0.20;;;9.50;99.90;;;;;;6125265;23;20732;-89
2023/10/15 05:42:49;;;;;;;0.20;0.20;;;9.40;99.90;;;;;;6149671;23;20250;-91
2023/10/15 05:45:15;;;;;;;0.20;0.20;;;9.20;99.90;;;;;;6124943;23;20206;-91
2023/10/15 05:47:44;;;;;;;0.50;0.50;;;9.10;99.90;;;;;;6125565;23;20159;-89
2023/10/15 05:50:13;;;;;;;0.10;0.10;;;9.00;99.90;;;;;;6150447;23;20159;-88
2023/10/15 05:52:39;;;;;;;0.20;0.20;;;9.10;99.90;;;;;;6125056;23;20195;-92
2023/10/15 05:55:06;;;;;;;0.17;0.17;;;9.30;99.90;;;;;;6124558;23;20206;-91
2023/10/15 05:57:33;;;;;;;0.17;0.17;;;9.30;99.90;;;;;;6148725;23;20196;-90
2023/10/15 06:00:17;;;;;;;0.30;0.30;;;9.30;99.90;;;;;;6125002;23;20191;-91
2023/10/15 06:02:44;;;;;;;0.20;0.20;;;9.30;99.90;;;;;;6128519;23;20155;-89
2023/10/15 06:05:13;;;;;;;0.20;0.20;;;9.40;99.90;;;;;;6125444;23;20313;-89
2023/10/15 06:07:41;;;;;;;0.20;0.20;;;9.50;99.90;;;;;;6125222;23;20668;-89
2023/10/15 06:10:14;;;;;;;0.10;0.10;;;9.60;99.90;;;;;;6148626;23;20203;-92
2023/10/15 06:12:40;;;;;;;0.50;0.30;;;9.40;99.90;;;;;;6125690;23;20295;-90
2023/10/15 06:15:08;;;;;;;0.57;0.40;;;9.50;99.90;;;;;;6148418;23;20209;-89
2023/10/15 06:17:34;;;;;;;2.70;2.53;;;9.40;99.90;;;;;;6149391;23;20207;-89
2023/10/15 06:20:12;;;;;;;0.20;0.20;;;9.20;99.90;;;;;;6148292;23;20191;-90
2023/10/15 06:22:46;;;;;;;1.03;0.33;;;9.30;99.90;;;;;;6148617;23;20199;-87
2023/10/15 06:25:13;;;;;;;0.43;0.43;;;9.20;99.90;;;;;;6148715;23;20295;-87
2023/10/15 06:27:40;;;;;;;2.00;1.63;;;9.20;99.90;;;;;;6147555;23;20253;-89
2023/10/15 06:30:16;;;;;;;1.00;1.00;;;9.00;99.90;;;;;;6146891;23;20242;-91
2023/10/15 06:32:43;;;;;;;0.30;0.30;;;8.60;99.90;;;;;;6147417;23;20143;-92
2023/10/15 06:35:10;;;;;;;0.20;0.20;;;8.40;99.90;;;;;;6148231;23;20593;-91
2023/10/15 06:37:38;;;;;;;0.63;0.63;;;8.40;99.90;;;;;;6123349;23;20254;-89
2023/10/15 06:40:10;;;;;;;0.57;0.57;;;8.50;99.90;;;;;;6123603;23;20195;-92
2023/10/15 06:42:36;;;;;;;0.20;0.20;;;8.50;99.90;;;;;;6124254;23;21020;-89
2023/10/15 06:45:06;;;;;;;0.70;0.70;;;8.30;99.90;;;;;;6122684;23;20199;-92
2023/10/15 06:47:33;;;;;;;0.20;0.20;;;8.10;99.90;;;;;;6148797;23;20164;-91
2023/10/15 06:50:00;;;;;;;0.83;0.83;;;8.10;99.90;;;;;;6123180;23;20602;-96
2023/10/15 06:52:25;;;;;;;0.10;0.10;;;8.20;99.90;;;;;;6123730;23;20239;-91
2023/10/15 06:54:51;;;;;;;1.80;1.03;;;8.20;99.90;;;;;;6122836;23;20656;-89
2023/10/15 06:57:17;;;;;;;2.73;0.30;;;8.30;99.90;;;;;;6122952;23;20223;-88
2023/10/15 06:59:43;;;;;;;0.30;0.30;;;8.30;99.90;;;;;;6123557;23;20604;-89
2023/10/15 07:02:10;;;;;;;0.40;0.40;;;8.30;99.90;;;;;;6123660;23;20194;-88
2023/10/15 07:04:35;;;;;;;0.30;0.30;;;8.40;99.90;;;;;;6121002;23;20210;-89
2023/10/15 07:07:01;;;;;;;0.40;0.40;;;8.40;99.90;;;;;;6123149;23;20191;-91
2023/10/15 07:09:27;;;;;;;0.30;0.30;;;8.60;99.90;;;;;;6123153;23;20199;-88
2023/10/15 07:11:53;;;;;;;0.77;0.40;;;8.70;99.90;;;;;;6122950;23;20163;-89
2023/10/15 07:14:20;;;;;;;0.20;0.20;;;8.70;99.90;;;;;;6147606;23;20197;-90
2023/10/15 07:16:46;;;;;;;0.30;0.30;;;8.90;99.90;;;;;;6147168;23;20199;-88
2023/10/15 07:19:12;;;;;;;0.37;0.37;;;9.30;99.90;;;;;;6122199;23;20219;-90
2023/10/15 07:21:38;;;;;;;0.10;0.10;;;9.50;99.90;;;;;;6123278;23;20210;-90
2023/10/15 07:24:05;;;;;;;0.20;0.20;;;9.80;99.90;;;;;;6121555;23;20262;-90
2023/10/15 07:26:31;;;;;;;0.50;0.20;;;10.00;99.90;;;;;;6124100;23;20160;-87
2023/10/15 07:28:56;;;;;;;0.50;0.50;;;10.10;99.90;;;;;;6122659;23;20199;-89
2023/10/15 07:31:22;;;;;;;0.20;0.20;;;10.30;99.90;;;;;;6148029;23;20295;-90
2023/10/15 07:33:48;;;;;;;0.57;0.50;;;10.40;99.90;;;;;;6146851;23;20207;-88
2023/10/15 07:36:14;;;;;;;0.87;0.87;;;10.20;99.90;;;;;;6122818;23;20203;-87
2023/10/15 07:38:41;;;;;;;0.20;0.20;;;9.80;99.90;;;;;;6147698;23;20237;-89
2023/10/15 07:41:06;;;;;;;2.47;0.33;;;8.70;99.90;;;;;;6123283;23;20230;-89
2023/10/15 07:43:32;;;;;;;0.30;0.30;;;8.30;99.90;;;;;;6122343;23;20195;-89
2023/10/15 07:45:59;;;;;;;0.20;0.20;;;8.30;99.90;;;;;;6147480;23;20207;-90
2023/10/15 07:48:24;;;;;;;0.10;0.10;;;8.40;99.90;;;;;;6123384;23;20594;-89
2023/10/15 07:50:51;;;;;;;0.20;0.20;;;8.70;99.90;;;;;;6122850;23;20168;-89
2023/10/15 07:53:17;;;;;;;0.60;0.60;;;8.90;99.90;;;;;;6147975;23;20616;-88
2023/10/15 07:55:42;;;;;;;0.20;0.20;;;9.10;99.90;;;;;;6122469;23;20203;-88
2023/10/15 07:58:09;;;;;;;0.20;0.20;;;9.30;99.90;;;;;;6122534;23;20274;-90
2023/10/15 08:00:35;;;;;;;0.50;0.50;;;9.40;99.90;;;;;;6123361;23;20995;-90
2023/10/15 08:03:01;;;;;;;2.73;0.93;;;9.30;99.90;;;;;;6122896;23;20190;-89
2023/10/15 08:05:31;;;;;;;0.20;0.20;;;9.30;99.90;;;;;;6147222;23;20258;-89
2023/10/15 08:07:57;;;;;;;0.43;0.43;;;9.40;99.90;;;;;;6146723;23;20195;-89
2023/10/15 08:10:24;;;;;;;0.30;0.30;;;9.40;99.90;;;;;;6121012;23;20234;-88
2023/10/15 08:12:51;;;;;;;0.20;0.20;;;9.50;99.90;;;;;;6123147;23;20285;-90
2023/10/15 08:15:18;;;;;;;0.30;0.30;;;10.20;99.90;;;;;;6146812;23;20196;-89
2023/10/15 08:17:46;;;;;;;0.20;0.20;;;11.00;99.90;;;;;;6122743;23;20198;-89
2023/10/15 08:20:12;;;;;;;0.20;0.20;;;11.40;99.90;;;;;;6141695;23;20191;-91
2023/10/15 08:22:40;;;;;;;0.17;0.17;;;11.60;99.90;;;;;;6122568;23;20166;-89
2023/10/15 08:25:13;;;;;;;0.20;0.20;;;11.70;99.90;;;;;;6147669;23;20578;-89
2023/10/15 08:27:44;;;;;;;1.90;1.00;;;12.10;99.90;;;;;;6147561;23;20247;-90
2023/10/15 08:30:13;;;;;;;0.30;0.30;;;12.00;99.90;;;;;;6147745;23;20195;-90
2023/10/15 08:32:44;;;;;;;0.30;0.30;;;11.70;99.90;;;;;;6125403;23;20254;-90
2023/10/15 08:35:10;;;;;;;5.60;0.47;;;11.60;99.90;;;;;;6124040;23;20202;-88
2023/10/15 08:37:39;;;;;;;0.40;0.40;;;11.50;99.90;;;;;;6149002;23;20306;-89
2023/10/15 08:40:06;;;;;;;0.23;0.23;;;11.50;99.90;;;;;;6149558;23;20160;-90
2023/10/15 08:42:51;;;;;;;0.27;0.27;;;11.70;99.90;;;;;;6149388;23;20580;-90
2023/10/15 08:45:21;;;;;;;0.73;0.20;;;11.90;99.90;;;;;;6148520;23;20227;-89
2023/10/15 08:47:48;;;;;;;0.50;0.30;;;11.80;99.90;;;;;;6148779;23;20206;-88
2023/10/15 08:50:16;;;;;;;1.27;0.20;;;11.30;99.90;;;;;;6149016;23;20203;-89
2023/10/15 08:52:44;;;;;;;0.13;0.13;;;11.00;99.90;;;;;;6149106;23;20195;-87
2023/10/15 08:55:14;;;;;;;1.50;0.40;;;10.80;99.90;;;;;;6148763;23;20543;-91
2023/10/15 08:57:41;;;;;;;2.00;0.37;;;10.90;99.90;;;;;;6124724;23;21026;-89
2023/10/15 09:00:25;;;;;;;0.27;0.27;;;11.30;99.90;;;;;;6124444;23;20875;-90
2023/10/15 09:02:53;;;;;;;0.10;0.10;;;11.70;99.90;;;;;;6149356;23;20203;-90
2023/10/15 09:05:19;;;;;;;0.40;0.40;;;11.30;99.90;;;;;;6122953;23;20203;-88
2023/10/15 09:07:47;;;;;;;0.10;0.10;;;10.70;99.90;;;;;;6124445;23;20230;-89
2023/10/15 09:10:16;;;;;;;0.20;0.20;;;10.50;99.90;;;;;;6125726;23;20167;-90
2023/10/15 09:12:42;;;;;;;0.50;0.50;;;10.30;99.90;;;;;;6148767;23;20202;-89
2023/10/15 09:15:17;;;;;;;0.17;0.17;;;10.20;99.90;;;;;;6123674;23;20214;-88
2023/10/15 09:17:59;;;;;;;1.07;0.37;;;10.10;99.90;;;;;;6125693;23;20191;-88
2023/10/15 09:20:26;;;;;;;0.57;0.40;;;10.10;99.90;;;;;;6148628;23;20190;-88
2023/10/15 09:22:59;;;;;;;0.10;0.10;;;10.70;99.90;;;;;;6149258;23;20191;-88
2023/10/15 09:25:26;;;;;;;0.20;0.20;;;10.70;99.90;;;;;;6123543;23;20170;-88
2023/10/15 09:27:56;;;;;;;0.20;0.20;;;10.70;99.90;;;;;;6149581;23;20645;-88
2023/10/15 09:30:27;;;;;;;0.20;0.20;;;10.80;99.90;;;;;;6147803;23;20207;-89
2023/10/15 09:32:54;;;;;;;0.30;0.30;;;11.00;99.90;;;;;;6124294;23;20207;-90
2023/10/15 09:35:21;;;;;;;3.03;1.50;;;11.00;99.90;;;;;;6148253;23;20959;-89
2023/10/15 09:37:47;;;;;;;0.33;0.33;;;11.10;99.90;;;;;;6123672;23;20314;-90
2023/10/15 09:40:19;;;;;;;0.17;0.17;;;11.60;99.90;;;;;;6124957;23;20254;-89
2023/10/15 09:42:49;;;;;;;0.20;0.20;;;11.50;99.90;;;;;;6148585;23;20176;-89
2023/10/15 09:45:18;;;;;;;0.20;0.20;;;11.20;99.90;;;;;;6148175;23;20195;-88
2023/10/15 09:47:49;;;;;;;0.50;0.20;;;9.80;99.90;;;;;;6148888;23;20662;-89
2023/10/15 09:50:25;;;;;;;4.50;3.53;;;9.30;99.90;;;;;;6149229;23;20202;-90
2023/10/15 09:53:01;;;;;;;2.20;0.30;;;9.20;99.90;;;;;;6125503;23;20257;-89
2023/10/15 09:55:31;;;;;;;0.60;0.20;;;9.00;99.90;;;;;;6149466;23;20190;-90
2023/10/15 09:58:01;;;;;;;3.80;0.67;;;9.10;99.90;;;;;;6125683;23;20143;-89
2023/10/15 10:00:47;;;;;;;0.20;0.20;;;9.30;99.90;;;;;;6150413;23;20192;-90
2023/10/15 10:03:38;;;;;;;0.20;0.20;;;9.70;99.90;;;;;;6149356;23;20253;-91
2023/10/15 10:06:22;;;;;;;0.20;0.20;;;10.20;99.90;;;;;;6149677;23;20215;-91
2023/10/15 10:09:25;;;;;;;0.20;0.20;;;10.40;99.90;;;;;;6149617;23;20206;-89
2023/10/15 10:12:23;;;;;;;0.20;0.20;;;10.50;99.90;;;;;;6149057;23;20210;-89
2023/10/15 10:15:04;;;;;;;0.20;0.20;;;10.80;99.90;;;;;;6148982;23;20234;-91
2023/10/15 10:17:32;;;;;;;4.70;0.50;;;11.10;99.90;;;;;;6149112;23;20234;-88
2023/10/15 10:20:10;;;;;;;0.10;0.10;;;11.70;99.90;;;;;;6124668;23;20210;-92
2023/10/15 10:22:37;;;;;;;0.10;0.10;;;11.70;99.90;;;;;;6125694;23;20246;-91
2023/10/15 10:25:03;;;;;;;0.53;0.53;;;11.00;99.90;;;;;;6150113;23;20494;-89
2023/10/15 10:27:40;;;;;;;0.50;0.50;;;10.10;99.90;;;;;;6124516;23;20199;-93
2023/10/15 10:30:30;;;;;;;1.40;0.63;;;9.50;99.90;;;;;;6124437;23;20202;-92
2023/10/15 10:32:57;;;;;;;0.20;0.20;;;9.50;99.90;;;;;;6124054;23;20263;-92
2023/10/15 10:35:26;;;;;;;0.20;0.20;;;9.60;99.90;;;;;;6122228;23;20205;-90
2023/10/15 10:38:02;;;;;;;0.13;0.13;;;9.60;99.90;;;;;;6124783;23;20213;-91
2023/10/15 10:41:07;;;;;;;0.20;0.20;;;9.70;99.90;;;;;;6147756;23;20647;-90
2023/10/15 10:43:33;;;;;;;0.20;0.20;;;9.80;99.90;;;;;;6148654;23;20577;-91
2023/10/15 10:46:02;;;;;;;0.80;0.80;;;10.50;99.90;;;;;;6123773;23;20198;-92
2023/10/15 10:48:33;;;;;;;0.20;0.20;;;11.50;99.90;;;;;;6147690;23;20749;-91
2023/10/15 10:51:08;;;;;;;0.10;0.10;;;12.20;99.90;;;;;;6147468;23;20210;-89
2023/10/15 10:53:59;;;;;;;0.20;0.20;;;12.80;99.90;;;;;;6147773;23;20224;-92
2023/10/15 10:56:40;;;;;;;0.20;0.20;;;13.00;99.90;;;;;;6146380;23;20648;-92
2023/10/15 10:59:16;;;;;;;0.53;0.30;;;13.10;99.90;;;;;;6147430;23;20195;-89
2023/10/15 11:01:45;;;;;;;0.70;0.50;;;13.70;99.90;;;;;;6148905;23;20191;-90
2023/10/15 11:04:15;;;;;;;1.97;0.80;;;13.70;99.90;;;;;;6148442;23;20155;-90
2023/10/15 11:06:42;;;;;;;0.20;0.20;;;13.80;99.90;;;;;;6123283;23;20202;-91
2023/10/15 11:09:15;;;;;;;0.47;0.23;;;13.70;99.90;;;;;;6122313;23;20203;-89
2023/10/15 11:11:49;;;;;;;0.47;0.30;;;13.70;99.90;;;;;;6123507;23;20203;-90
2023/10/15 11:14:16;;;;;;;0.10;0.10;;;13.00;99.90;;;;;;6119886;23;20285;-90
2023/10/15 11:16:51;;;;;;;4.57;0.37;;;12.30;99.90;;;;;;6145056;23;20210;-90
2023/10/15 11:19:21;;;;;;;0.20;0.20;;;11.90;99.90;;;;;;6147596;23;20474;-90
2023/10/15 11:21:52;;;;;;;0.40;0.30;;;11.60;99.90;;;;;;6122017;23;20191;-88
2023/10/15 11:24:19;;;;;;;0.20;0.20;;;11.00;99.90;;;;;;6145822;23;20199;-86
2023/10/15 11:26:48;;;;;;;0.10;0.10;;;10.40;99.90;;;;;;6145877;23;20203;-87
2023/10/15 11:29:16;;;;;;;1.00;0.40;;;10.00;99.90;;;;;;6146247;23;20210;-88
2023/10/15 11:31:50;;;;;;;0.10;0.10;;;10.00;99.90;;;;;;6122466;23;20282;-89
2023/10/15 11:34:19;;;;;;;0.10;0.10;;;10.10;99.90;;;;;;6146869;23;20233;-87
2023/10/15 11:36:49;;;;;;;0.10;0.10;;;10.60;99.90;;;;;;6144554;23;20183;-87
2023/10/15 11:40:04;;;;;;;0.20;0.20;;;11.60;99.90;;;;;;6121416;23;20199;-88
2023/10/15 11:42:07;;;;;;;15.80;0.77;;;12.40;99.90;;;;;;6135843;23;20282;-87
2023/10/15 11:44:37;;;;;;;1.10;0.30;;;13.00;99.90;;;;;;6144851;23;20249;-89
2023/10/15 11:47:11;;;;;;;5.73;0.77;;;13.40;99.90;;;;;;6147739;23;20743;-88
2023/10/15 11:49:43;;;;;;;3.00;0.97;;;13.60;99.90;;;;;;6146534;23;20155;-88
2023/10/15 11:52:14;;;;;;;0.10;0.10;;;13.90;99.90;;;;;;6147149;23;20226;-90
2023/10/15 11:54:49;;;;;;;0.10;0.10;;;14.30;99.90;;;;;;6145087;23;20207;-88
2023/10/15 11:57:27;;;;;;;1.53;0.40;;;13.20;99.90;;;;;;6146303;23;20194;-88
2023/10/15 11:59:53;;;;;;;1.07;1.07;;;12.30;99.90;;;;;;6121366;23;20724;-88
2023/10/15 12:02:19;;;;;;;0.40;0.40;;;12.20;99.90;;;;;;6146146;23;20663;-90
2023/10/15 12:04:51;;;;;;;0.37;0.37;;;11.80;99.90;;;;;;6121751;23;20660;-87
2023/10/15 12:07:21;;;;;;;0.10;0.10;;;11.80;99.90;;;;;;6125100;23;20152;-87
2023/10/15 12:09:50;;;;;;;0.10;0.10;;;11.50;99.90;;;;;;6124188;23;20191;-87
2023/10/15 12:12:17;;;;;;;0.10;0.10;;;11.70;99.90;;;;;;6122710;23;20207;-88
2023/10/15 12:14:43;;;;;;;2.63;0.50;;;12.40;99.90;;;;;;6136825;23;20664;-89
2023/10/15 12:17:12;;;;;;;0.23;0.23;;;12.80;99.90;;;;;;6138352;23;20198;-87
2023/10/15 12:19:39;;;;;;;0.20;0.20;;;12.90;99.90;;;;;;6113584;23;20643;-88
2023/10/15 12:22:05;;;;;;;0.17;0.17;;;12.60;99.90;;;;;;6123509;23;20163;-87
2023/10/15 12:24:35;;;;;;;0.67;0.30;;;12.00;99.90;;;;;;6146932;23;20206;-88
2023/10/15 12:27:00;;;;;;;0.47;0.47;;;11.70;99.90;;;;;;6124184;23;20226;-87
2023/10/15 12:29:29;;;;;;;1.13;0.47;;;11.40;99.90;;;;;;6147584;23;20217;-89
2023/10/15 12:31:58;;;;;;;0.10;0.10;;;11.50;99.90;;;;;;6147953;23;20208;-89
2023/10/15 12:34:24;;;;;;;0.10;0.10;;;11.50;99.90;;;;;;6147476;23;20195;-88
2023/10/15 12:36:50;;;;;;;0.63;0.43;;;11.40;99.90;;;;;;6147412;23;20163;-92
2023/10/15 12:39:26;;;;;;;0.40;0.40;;;11.30;99.90;;;;;;6123170;23;20195;-89
2023/10/15 12:41:53;;;;;;;0.20;0.20;;;11.30;99.90;;;;;;6138137;23;20198;-89
2023/10/15 12:44:19;;;;;;;0.37;0.37;;;11.20;99.90;;;;;;6147806;23;20269;-91
2023/10/15 12:46:48;;;;;;;0.20;0.20;;;11.10;99.90;;;;;;6147699;23;20202;-90
2023/10/15 12:49:15;;;;;;;0.10;0.10;;;11.20;99.90;;;;;;6149334;23;20242;-92
2023/10/15 12:51:41;;;;;;;0.20;0.20;;;11.10;99.90;;;;;;6124638;23;20771;-89
2023/10/15 12:54:06;;;;;;;0.10;0.10;;;11.20;99.90;;;;;;6124698;23;20238;-90
2023/10/15 12:56:33;;;;;;;0.40;0.40;;;11.30;99.90;;;;;;6122752;23;20302;-90
2023/10/15 12:58:59;;;;;;;0.30;0.30;;;11.30;99.90;;;;;;6125078;23;20202;-89
2023/10/15 13:01:25;;;;;;;1.40;1.27;;;11.40;99.90;;;;;;6124609;23;20159;-89
2023/10/15 13:03:51;;;;;;;0.30;0.30;;;11.50;99.90;;;;;;6149924;23;20652;-89
2023/10/15 13:06:16;;;;;;;1.00;0.40;;;11.60;99.90;;;;;;6123691;23;20218;-88
2023/10/15 13:08:43;;;;;;;0.10;0.10;;;12.00;99.90;;;;;;6123941;23;20203;-90
2023/10/15 13:11:11;;;;;;;0.60;0.60;;;12.60;99.90;;;;;;6124256;23;20214;-90
2023/10/15 13:13:37;;;;;;;0.10;0.10;;;12.70;99.90;;;;;;6124730;23;20629;-88
2023/10/15 13:16:03;;;;;;;0.70;0.70;;;12.80;99.90;;;;;;6148246;23;20162;-90
2023/10/15 13:18:30;;;;;;;0.40;0.40;;;12.90;99.90;;;;;;6124279;23;20286;-88
2023/10/15 13:20:58;;;;;;;0.20;0.20;;;12.80;99.90;;;;;;6124120;23;20531;-89
2023/10/15 13:23:24;;;;;;;0.30;0.30;;;12.90;99.90;;;;;;6124488;23;20651;-88
2023/10/15 13:25:50;;;;;;;0.20;0.20;;;13.10;99.90;;;;;;6123228;23;20219;-91
2023/10/15 13:28:16;;;;;;;2.23;2.13;;;13.00;99.90;;;;;;6124747;23;20192;-87